Time;durP1;ratioP1;P1;durP2;ratioP2;P2;SDS_P1;SDS_P2;PMS_P1;PMS_P2;Temp;Humidity;BMP_temperature;BMP_pressure;BME280_temperature;BME280_humidity;BME280_pressure;Samples;Min_cycle;Max_cycle;Signal;HPM_P1;HPM_P2
2023/07/11 00:00:06;;;;;;;1.65;0.65;;;;;;;20.37;79.23;101169.81;4997136;28;20042;-64
2023/07/11 00:02:33;;;;;;;1.52;0.80;;;;;;;20.30;79.70;101159.75;4974496;28;20049;-63
2023/07/11 00:04:59;;;;;;;0.85;0.45;;;;;;;20.31;79.46;101168.69;4975285;28;20074;-64
2023/07/11 00:07:25;;;;;;;0.88;0.47;;;;;;;20.18;79.77;101164.91;4994651;28;20108;-64
2023/07/11 00:09:51;;;;;;;1.92;0.52;;;;;;;20.11;80.44;101159.53;4999460;28;20483;-66
2023/07/11 00:12:17;;;;;;;3.08;1.10;;;;;;;20.12;80.06;101161.84;4993795;28;20061;-65
2023/07/11 00:14:43;;;;;;;2.20;0.63;;;;;;;20.02;81.01;101153.75;4976761;28;20394;-65
2023/07/11 00:17:10;;;;;;;1.17;0.63;;;;;;;20.13;81.32;101159.91;4991524;28;20482;-64
2023/07/11 00:19:55;;;;;;;0.70;0.38;;;;;;;19.94;81.03;101155.78;4982233;28;20068;-64
2023/07/11 00:22:22;;;;;;;1.30;0.88;;;;;;;19.84;81.75;101150.44;4987105;28;20065;-65
2023/07/11 00:24:48;;;;;;;1.38;0.50;;;;;;;19.74;82.79;101163.03;4975481;28;20026;-65
2023/07/11 00:27:17;;;;;;;1.08;0.60;;;;;;;19.76;82.96;101161.41;4980190;28;20038;-63
2023/07/11 00:29:43;;;;;;;0.60;0.45;;;;;;;19.75;82.38;101165.34;4989722;28;20042;-65
2023/07/11 00:32:12;;;;;;;0.80;0.40;;;;;;;19.60;83.15;101158.44;4974959;28;20029;-65
2023/07/11 00:34:38;;;;;;;0.50;0.40;;;;;;;19.61;82.74;101157.25;4992893;28;20038;-64
2023/07/11 00:37:03;;;;;;;2.17;1.13;;;;;;;19.50;83.74;101161.25;4990912;28;20483;-65
2023/07/11 00:39:31;;;;;;;0.45;0.32;;;;;;;19.60;83.58;101158.44;5000113;28;20273;-65
2023/07/11 00:41:57;;;;;;;1.48;0.75;;;;;;;19.67;82.77;101157.59;4992003;28;20434;-65
2023/07/11 00:44:23;;;;;;;0.60;0.50;;;;;;;19.72;82.68;101154.44;4991511;28;20037;-64
2023/07/11 00:46:49;;;;;;;0.90;0.50;;;;;;;19.82;81.73;101164.50;4995187;28;20671;-65
2023/07/11 00:49:18;;;;;;;0.57;0.52;;;;;;;19.75;81.82;101156.34;5000691;28;20120;-63
2023/07/11 00:51:48;;;;;;;1.85;0.50;;;;;;;19.70;82.07;101146.63;4975757;28;20030;-64
2023/07/11 00:54:18;;;;;;;0.55;0.35;;;;;;;19.64;81.95;101144.75;4974171;28;20047;-63
2023/07/11 00:56:46;;;;;;;1.17;0.57;;;;;;;19.54;82.77;101143.66;4985586;28;20039;-63
2023/07/11 00:59:14;;;;;;;0.90;0.45;;;;;;;19.49;82.87;101140.59;4971124;28;20041;-66
2023/07/11 01:01:41;;;;;;;0.43;0.43;;;;;;;19.44;83.14;101144.53;4986362;28;20042;-66
2023/07/11 01:04:06;;;;;;;0.55;0.55;;;;;;;19.55;82.81;101136.25;4994599;28;20629;-64
2023/07/11 01:06:32;;;;;;;0.63;0.55;;;;;;;19.54;83.17;101138.19;5000307;28;20076;-63
2023/07/11 01:08:59;;;;;;;0.68;0.57;;;;;;;19.52;82.82;101137.03;4990449;28;20046;-62
2023/07/11 01:11:29;;;;;;;0.60;0.40;;;;;;;19.58;82.46;101138.94;4976001;28;20034;-63
2023/07/11 01:13:55;;;;;;;1.00;0.55;;;;;;;19.50;82.79;101131.19;4972484;28;20029;-63
2023/07/11 01:16:21;;;;;;;9.65;1.00;;;;;;;19.45;82.97;101126.94;4998204;28;20048;-63
2023/07/11 01:18:46;;;;;;;0.77;0.50;;;;;;;19.27;84.03;101129.03;4978657;28;20647;-63
2023/07/11 01:21:17;;;;;;;0.47;0.47;;;;;;;19.36;83.69;101126.63;4993129;28;20513;-63
2023/07/11 01:23:43;;;;;;;1.02;0.70;;;;;;;19.32;83.80;101120.41;4983683;28;20123;-65
2023/07/11 01:26:11;;;;;;;0.70;0.50;;;;;;;19.31;84.33;101129.78;4978879;28;20081;-63
2023/07/11 01:28:39;;;;;;;0.63;0.50;;;;;;;19.38;83.91;101128.94;4972997;28;20410;-65
2023/07/11 01:31:04;;;;;;;1.20;0.65;;;;;;;19.21;84.08;101121.63;4983551;28;20197;-63
2023/07/11 01:33:30;;;;;;;2.55;0.70;;;;;;;19.27;84.06;101114.56;4989640;28;20561;-64
2023/07/11 01:35:56;;;;;;;0.90;0.68;;;;;;;19.08;84.63;101107.69;4987889;28;20137;-64
2023/07/11 01:38:23;;;;;;;4.30;0.93;;;;;;;19.15;84.72;101102.19;4994756;28;20052;-65
2023/07/11 01:40:50;;;;;;;1.27;0.50;;;;;;;19.12;85.15;101105.72;5002798;28;20042;-64
2023/07/11 01:43:17;;;;;;;0.40;0.35;;;;;;;19.11;85.10;101112.34;4986660;28;20034;-64
2023/07/11 01:45:42;;;;;;;1.80;0.70;;;;;;;19.09;85.20;101109.25;4994350;28;20041;-64
2023/07/11 01:48:08;;;;;;;1.63;0.70;;;;;;;19.00;85.52;101102.69;4994911;28;20038;-64
2023/07/11 01:50:34;;;;;;;0.45;0.45;;;;;;;19.07;85.10;101102.63;5001255;28;20395;-64
2023/07/11 01:52:59;;;;;;;2.45;0.80;;;;;;;19.19;85.00;101108.41;4980613;28;20562;-64
2023/07/11 01:55:25;;;;;;;0.95;0.63;;;;;;;19.13;85.10;101088.16;4973050;28;20038;-63
2023/07/11 01:57:50;;;;;;;2.03;1.10;;;;;;;19.19;84.55;101093.97;4999398;28;20029;-64
2023/07/11 02:00:16;;;;;;;2.25;0.85;;;;;;;18.98;85.58;101094.91;4981298;28;20514;-64
2023/07/11 02:02:50;;;;;;;3.90;1.42;;;;;;;19.11;85.63;101082.31;4989422;28;20026;-64
2023/07/11 02:05:16;;;;;;;1.48;0.70;;;;;;;19.12;85.23;101089.34;4989600;28;20046;-64
2023/07/11 02:07:41;;;;;;;1.63;0.45;;;;;;;19.08;84.92;101080.41;5001771;28;20034;-63
2023/07/11 02:10:07;;;;;;;1.65;1.00;;;;;;;18.95;85.85;101084.75;5000690;28;20046;-65
2023/07/11 02:12:33;;;;;;;1.88;0.40;;;;;;;18.89;86.50;101086.38;4980978;28;20035;-64
2023/07/11 02:14:58;;;;;;;1.85;0.60;;;;;;;18.83;86.36;101083.28;4997510;28;20030;-64
2023/07/11 02:17:24;;;;;;;0.73;0.60;;;;;;;18.92;86.12;101082.84;4977364;28;20407;-62
2023/07/11 02:19:49;;;;;;;0.93;0.50;;;;;;;18.86;86.31;101089.91;5002529;28;20037;-63
2023/07/11 02:22:14;;;;;;;1.42;0.57;;;;;;;18.82;86.36;101086.41;4974597;28;20029;-62
2023/07/11 02:24:40;;;;;;;0.98;0.50;;;;;;;18.67;87.16;101074.81;4991883;28;20038;-64
2023/07/11 02:27:07;;;;;;;0.57;0.50;;;;;;;18.62;87.20;101074.47;4984978;28;20038;-64
2023/07/11 02:29:32;;;;;;;0.75;0.63;;;;;;;18.68;87.39;101075.56;4994095;28;20030;-63
2023/07/11 02:31:58;;;;;;;1.00;0.60;;;;;;;18.59;87.38;101078.75;4995065;28;20406;-62
2023/07/11 02:34:24;;;;;;;1.48;0.50;;;;;;;18.65;87.60;101077.16;4992611;28;20530;-63
2023/07/11 02:36:49;;;;;;;0.90;0.68;;;;;;;18.68;87.63;101076.38;4995402;28;20088;-62
2023/07/11 02:39:15;;;;;;;2.35;0.70;;;;;;;18.70;87.08;101074.00;4996809;28;20038;-62
2023/07/11 02:41:41;;;;;;;0.35;0.35;;;;;;;18.64;87.30;101069.41;4981729;28;20184;-63
2023/07/11 02:44:07;;;;;;;2.33;0.65;;;;;;;18.68;87.40;101070.13;4997961;28;20030;-63
2023/07/11 02:46:32;;;;;;;3.60;1.05;;;;;;;18.78;86.71;101077.47;4982113;28;20026;-63
2023/07/11 02:48:58;;;;;;;4.25;1.15;;;;;;;18.64;86.82;101069.41;4994547;28;20122;-64
2023/07/11 02:51:23;;;;;;;1.80;1.00;;;;;;;18.74;87.08;101063.06;4994563;28;20475;-62
2023/07/11 02:53:49;;;;;;;2.35;0.70;;;;;;;18.73;86.62;101061.53;5014321;23;20450;-65
2023/07/11 02:56:35;;;;;;;0.63;0.47;;;;;;;18.71;86.90;101063.88;4978715;28;20089;-65
2023/07/11 02:59:01;;;;;;;2.42;0.90;;;;;;;18.73;86.69;101065.03;4986295;28;20049;-65
2023/07/11 03:01:31;;;;;;;0.98;0.75;;;;;;;18.74;86.54;101071.25;4980690;28;20099;-65
2023/07/11 03:03:57;;;;;;;0.80;0.45;;;;;;;18.62;86.90;101066.28;4980979;28;20049;-64
2023/07/11 03:06:23;;;;;;;2.08;0.80;;;;;;;18.56;87.05;101065.16;4983081;28;20050;-66
2023/07/11 03:08:48;;;;;;;0.45;0.45;;;;;;;18.53;87.28;101065.94;4988994;28;20034;-66
2023/07/11 03:11:14;;;;;;;0.57;0.50;;;;;;;18.52;87.17;101059.72;4973096;28;20046;-65
2023/07/11 03:13:40;;;;;;;1.60;0.63;;;;;;;18.47;86.99;101051.94;4971710;28;20116;-65
2023/07/11 03:16:05;;;;;;;1.88;0.60;;;;;;;18.47;86.50;101054.66;4968648;28;20674;-65
2023/07/11 03:18:32;;;;;;;0.82;0.70;;;;;;;18.54;85.76;101064.78;4961610;28;20046;-66
2023/07/11 03:20:59;;;;;;;0.80;0.52;;;;;;;18.53;86.10;101058.53;4977614;28;20030;-65
2023/07/11 03:23:24;;;;;;;0.57;0.47;;;;;;;18.51;85.63;101052.69;4978214;28;20096;-66
2023/07/11 03:25:53;;;;;;;0.60;0.40;;;;;;;18.39;86.56;101050.38;4972130;28;20058;-65
2023/07/11 03:28:18;;;;;;;1.10;0.50;;;;;;;18.32;87.13;101042.25;4973723;28;20069;-66
2023/07/11 03:30:44;;;;;;;3.42;0.70;;;;;;;18.47;86.63;101042.97;4959686;28;20534;-65
2023/07/11 03:33:09;;;;;;;1.67;0.50;;;;;;;18.41;86.85;101037.13;4976520;28;20458;-67
2023/07/11 03:35:35;;;;;;;0.93;0.63;;;;;;;18.39;87.53;101033.25;4978699;28;20503;-66
2023/07/11 03:38:00;;;;;;;1.70;0.60;;;;;;;18.47;86.96;101038.28;4998774;28;20769;-65
2023/07/11 03:40:27;;;;;;;0.50;0.50;;;;;;;18.54;86.82;101032.03;5000751;28;20042;-65
2023/07/11 03:42:55;;;;;;;1.80;0.80;;;;;;;18.61;86.89;101015.59;4999063;28;20076;-64
2023/07/11 03:45:20;;;;;;;0.73;0.73;;;;;;;18.75;86.44;101019.03;4998607;28;20033;-65
2023/07/11 03:47:46;;;;;;;0.60;0.50;;;;;;;18.83;86.61;101027.94;4997998;28;20056;-66
2023/07/11 03:50:11;;;;;;;1.35;0.77;;;;;;;18.92;86.27;101030.97;5002082;28;20049;-65
2023/07/11 03:52:37;;;;;;;1.08;0.60;;;;;;;18.98;86.00;101012.22;4991053;28;20137;-65
2023/07/11 03:55:03;;;;;;;0.80;0.50;;;;;;;18.89;86.02;101018.16;4996566;28;20092;-65
2023/07/11 03:57:28;;;;;;;0.50;0.40;;;;;;;18.96;86.14;101009.88;4989075;28;20022;-65
2023/07/11 03:59:53;;;;;;;0.75;0.70;;;;;;;19.18;85.30;101013.97;4984996;28;20030;-63
2023/07/11 04:02:19;;;;;;;0.93;0.57;;;;;;;19.27;85.39;101008.06;4986999;28;20437;-65
2023/07/11 04:04:44;;;;;;;3.67;0.60;;;;;;;19.34;85.44;101003.31;4989248;28;20022;-66
2023/07/11 04:07:10;;;;;;;0.52;0.50;;;;;;;19.48;85.19;101014.13;4995031;28;20044;-65
2023/07/11 04:09:35;;;;;;;1.85;0.50;;;;;;;19.51;83.99;101005.09;4996330;28;20411;-65
2023/07/11 04:12:01;;;;;;;2.85;0.88;;;;;;;19.64;84.03;101017.06;4997381;28;20198;-65
2023/07/11 04:14:26;;;;;;;0.90;0.60;;;;;;;19.76;83.48;101010.31;4999126;28;20516;-65
2023/07/11 04:16:52;;;;;;;0.60;0.50;;;;;;;19.81;83.31;101001.66;4988627;28;20448;-66
2023/07/11 04:19:17;;;;;;;0.73;0.55;;;;;;;19.97;82.93;101003.81;4988607;28;20503;-66
2023/07/11 04:21:43;;;;;;;0.30;0.30;;;;;;;20.06;83.09;101009.53;4989793;28;20034;-67
2023/07/11 04:24:08;;;;;;;1.40;0.68;;;;;;;20.06;81.94;101009.53;4999234;28;20053;-65
2023/07/11 04:26:34;;;;;;;3.55;0.75;;;;;;;20.14;82.58;101008.25;4990008;28;20042;-65
2023/07/11 04:28:59;;;;;;;1.48;0.68;;;;;;;20.25;82.06;101008.91;4992445;28;20037;-68
2023/07/11 04:31:27;;;;;;;1.13;0.55;;;;;;;20.31;82.04;101005.31;4995649;28;20080;-65
2023/07/11 04:33:53;;;;;;;0.55;0.50;;;;;;;;;;4990178;28;20038;-65
2023/07/11 04:36:19;;;;;;;0.50;0.40;;;;;;;20.47;80.04;101012.91;4992423;28;20053;-65
2023/07/11 04:38:45;;;;;;;1.70;0.85;;;;;;;20.37;80.38;100997.41;4991464;28;20049;-66
2023/07/11 04:41:14;;;;;;;1.48;0.57;;;;;;;20.07;81.01;100989.22;4998277;28;20102;-66
2023/07/11 04:43:39;;;;;;;0.25;0.25;;;;;;;20.26;80.25;100983.91;5000513;28;20041;-66
2023/07/11 04:46:06;;;;;;;3.95;0.55;;;;;;;20.32;79.80;100992.41;4991511;28;20034;-65
2023/07/11 04:48:35;;;;;;;0.70;0.60;;;;;;;20.42;78.26;100994.25;4987655;28;20047;-65
2023/07/11 04:51:04;;;;;;;0.60;0.40;;;;;;;20.61;77.99;100999.03;4991998;28;21052;-66
2023/07/11 04:53:30;;;;;;;0.70;0.32;;;;;;;20.67;77.44;100983.69;4989214;28;20055;-66
2023/07/11 04:56:01;;;;;;;0.82;0.60;;;;;;;20.57;77.69;100998.31;4983745;28;20038;-65
2023/07/11 04:58:31;;;;;;;0.40;0.35;;;;;;;20.67;77.56;100994.66;4994930;28;20034;-65
2023/07/11 05:01:06;;;;;;;0.52;0.50;;;;;;;20.65;78.63;100994.28;4995101;28;20118;-66
2023/07/11 05:03:32;;;;;;;1.02;0.70;;;;;;;20.75;77.24;100996.06;4992857;28;20048;-64
2023/07/11 05:05:58;;;;;;;1.08;0.52;;;;;;;20.67;78.27;100986.44;4991551;28;20105;-64
2023/07/11 05:08:24;;;;;;;2.03;0.65;;;;;;;20.78;77.46;100989.75;4984247;28;20061;-62
2023/07/11 05:11:01;;;;;;;0.82;0.52;;;;;;;20.59;78.18;100996.72;5002921;28;20034;-63
2023/07/11 05:13:27;;;;;;;0.90;0.43;;;;;;;20.59;78.26;100983.03;4980081;28;20419;-67
2023/07/11 05:16:02;;;;;;;1.60;0.80;;;;;;;20.83;78.07;100991.25;4997251;28;20033;-65
2023/07/11 05:18:28;;;;;;;0.98;0.60;;;;;;;21.04;77.63;100991.69;4988469;28;20544;-65
2023/07/11 05:20:55;;;;;;;1.42;0.40;;;;;;;21.43;75.95;100985.50;4989114;28;20030;-68
2023/07/11 05:23:28;;;;;;;2.75;0.65;;;;;;;21.97;72.83;100994.28;4999764;28;20446;-64
2023/07/11 05:25:56;;;;;;;0.40;0.40;;;;;;;22.35;71.23;100992.66;5000657;28;20483;-65
2023/07/11 05:28:26;;;;;;;1.92;0.70;;;;;;;22.39;69.82;100991.38;4976960;28;20506;-66
2023/07/11 05:30:55;;;;;;;1.38;0.77;;;;;;;22.68;68.86;101002.50;4977992;28;20442;-64
2023/07/11 05:33:21;;;;;;;0.90;0.52;;;;;;;23.06;67.37;100995.28;4987859;28;20037;-63
2023/07/11 05:36:07;;;;;;;1.55;0.70;;;;;;;23.38;66.94;100989.00;4990354;28;20406;-66
2023/07/11 05:38:34;;;;;;;0.57;0.57;;;;;;;23.62;65.14;100995.78;5003030;28;20116;-65
2023/07/11 05:41:00;;;;;;;2.08;0.55;;;;;;;23.72;63.39;100985.69;5002258;28;20030;-64
2023/07/11 05:43:25;;;;;;;0.93;0.57;;;;;;;23.58;64.30;100981.34;4990716;28;20044;-64
2023/07/11 05:45:51;;;;;;;1.45;0.47;;;;;;;23.98;61.80;100984.53;4984001;28;20042;-62
2023/07/11 05:48:16;;;;;;;1.75;0.60;;;;;;;24.09;62.25;100983.03;4998036;28;20034;-65
2023/07/11 05:50:41;;;;;;;1.02;0.60;;;;;;;24.31;61.48;100971.38;4992021;28;20118;-62
2023/07/11 05:53:07;;;;;;;0.40;0.40;;;;;;;24.20;60.77;100960.69;4997833;28;20030;-64
2023/07/11 05:55:32;;;;;;;1.73;0.52;;;;;;;23.97;61.16;100969.22;4986749;28;20478;-65
2023/07/11 05:57:58;;;;;;;0.90;0.55;;;;;;;24.01;61.56;100951.41;4998121;28;20034;-62
2023/07/11 06:00:23;;;;;;;0.90;0.50;;;;;;;24.14;60.73;100956.94;4992923;28;20036;-63
2023/07/11 06:02:49;;;;;;;2.17;0.40;;;;;;;23.97;61.55;100942.47;4993746;28;20022;-64
2023/07/11 06:05:14;;;;;;;1.45;0.50;;;;;;;24.30;61.58;100956.81;4997200;28;20089;-64
2023/07/11 06:07:40;;;;;;;0.30;0.30;;;;;;;24.54;59.73;100947.03;4993673;28;20030;-64
2023/07/11 06:10:06;;;;;;;1.23;0.50;;;;;;;24.49;58.83;100938.50;4988035;28;20038;-65
2023/07/11 06:12:33;;;;;;;1.50;0.52;;;;;;;24.72;59.34;100935.41;4991792;28;20062;-65
2023/07/11 06:14:58;;;;;;;0.90;0.30;;;;;;;24.84;58.13;100934.63;4991558;28;20030;-65
2023/07/11 06:17:24;;;;;;;0.95;0.70;;;;;;;24.31;60.00;100922.59;4996956;28;20030;-65
2023/07/11 06:19:51;;;;;;;0.43;0.40;;;;;;;24.27;60.43;100921.16;4996812;28;20107;-65
2023/07/11 06:22:16;;;;;;;2.20;0.52;;;;;;;24.26;60.00;100914.88;4996077;28;20431;-64
2023/07/11 06:24:41;;;;;;;0.35;0.35;;;;;;;24.49;59.78;100916.47;4991679;28;20125;-65
2023/07/11 06:27:07;;;;;;;2.22;0.68;;;;;;;24.70;59.25;100919.31;4991833;28;20065;-63
2023/07/11 06:29:32;;;;;;;1.65;0.80;;;;;;;24.72;60.05;100916.91;4983161;28;20025;-66
2023/07/11 06:31:58;;;;;;;1.48;0.47;;;;;;;24.78;59.47;100909.63;4997055;28;20103;-67
2023/07/11 06:34:23;;;;;;;1.48;0.60;;;;;;;24.50;60.28;100904.25;4974670;28;20042;-65
2023/07/11 06:36:49;;;;;;;1.95;0.75;;;;;;;24.94;59.18;100901.19;4976643;28;20034;-66
2023/07/11 06:39:14;;;;;;;0.57;0.43;;;;;;;24.97;58.96;100902.28;4989703;28;20042;-66
2023/07/11 06:41:40;;;;;;;1.65;0.52;;;;;;;25.27;58.66;100895.31;4982127;28;20049;-65
2023/07/11 06:44:08;;;;;;;0.95;0.40;;;;;;;25.19;58.88;100897.56;4975520;28;20030;-65
2023/07/11 06:46:37;;;;;;;0.80;0.57;;;;;;;25.27;60.08;100904.34;4990842;28;20026;-65
2023/07/11 06:49:03;;;;;;;0.68;0.68;;;;;;;25.54;58.96;100901.81;4992752;28;20062;-66
2023/07/11 06:51:32;;;;;;;0.75;0.50;;;;;;;25.45;59.17;100898.22;4985859;28;20060;-65
2023/07/11 06:53:57;;;;;;;0.65;0.63;;;;;;;25.53;59.73;100894.00;4983994;28;20446;-66
2023/07/11 06:56:22;;;;;;;0.93;0.60;;;;;;;25.78;59.28;100900.09;4996152;28;20029;-66
2023/07/11 06:58:49;;;;;;;1.00;0.50;;;;;;;25.60;59.54;100891.72;4990838;28;20038;-64
2023/07/11 07:01:17;;;;;;;0.40;0.40;;;;;;;25.51;59.44;100888.91;4994626;28;20053;-66
2023/07/11 07:03:42;;;;;;;0.43;0.40;;;;;;;25.53;59.11;100888.47;4986522;28;20353;-65
2023/07/11 07:06:10;;;;;;;1.45;0.70;;;;;;;25.86;59.33;100879.28;4979652;28;20038;-66
2023/07/11 07:08:36;;;;;;;2.65;0.52;;;;;;;25.98;56.78;100883.16;4987185;28;20092;-65
2023/07/11 07:11:02;;;;;;;0.90;0.60;;;;;;;25.52;57.29;100878.63;4984254;28;20042;-65
2023/07/11 07:13:28;;;;;;;0.43;0.30;;;;;;;25.91;56.20;100883.44;4988730;28;20838;-66
2023/07/11 07:15:59;;;;;;;1.58;0.45;;;;;;;25.36;57.17;100881.59;4987435;28;20950;-66
2023/07/11 07:18:26;;;;;;;1.13;0.57;;;;;;;25.70;57.87;100867.69;4991117;28;20095;-66
2023/07/11 07:20:53;;;;;;;0.77;0.52;;;;;;;26.09;56.56;100868.97;4993944;28;20439;-67
2023/07/11 07:23:19;;;;;;;1.00;0.50;;;;;;;26.41;55.36;100869.19;4991288;28;20491;-67
2023/07/11 07:25:53;;;;;;;0.63;0.57;;;;;;;26.72;53.94;100880.16;4988297;28;20049;-66
2023/07/11 07:28:19;;;;;;;0.65;0.45;;;;;;;26.46;54.42;100871.34;4983576;28;20030;-64
2023/07/11 07:30:45;;;;;;;0.63;0.47;;;;;;;26.23;55.29;100871.16;4991771;28;20022;-67
2023/07/11 07:33:11;;;;;;;2.47;0.50;;;;;;;26.64;54.45;100871.38;4988778;28;20074;-66
2023/07/11 07:35:36;;;;;;;1.92;0.60;;;;;;;26.46;54.72;100859.53;4990754;28;20112;-67
2023/07/11 07:38:03;;;;;;;1.15;0.57;;;;;;;26.92;53.65;100869.41;4992533;28;20038;-67
2023/07/11 07:40:29;;;;;;;0.50;0.40;;;;;;;26.98;53.83;100875.88;4988038;28;20030;-66
2023/07/11 07:42:54;;;;;;;0.60;0.50;;;;;;;26.96;56.06;100866.50;4997624;28;20041;-66
2023/07/11 07:45:20;;;;;;;0.60;0.57;;;;;;;27.18;53.10;100867.06;5001063;28;20030;-66
2023/07/11 07:47:45;;;;;;;0.30;0.30;;;;;;;27.48;53.79;100860.59;4983528;28;20109;-66
2023/07/11 07:50:11;;;;;;;0.55;0.50;;;;;;;26.88;53.32;100862.50;4979695;28;20460;-67
2023/07/11 07:52:36;;;;;;;0.98;0.50;;;;;;;27.27;52.36;100856.00;4987404;28;20026;-66
2023/07/11 07:55:02;;;;;;;3.63;0.60;;;;;;;27.65;52.38;100853.47;4988371;28;20038;-67
2023/07/11 07:57:27;;;;;;;0.73;0.35;;;;;;;27.18;52.43;100854.00;4998163;28;20034;-65
2023/07/11 07:59:53;;;;;;;1.00;0.50;;;;;;;27.59;50.81;100849.78;4997267;28;20049;-65
2023/07/11 08:02:18;;;;;;;3.17;0.40;;;;;;;27.93;50.83;100851.34;4996430;28;20026;-64
2023/07/11 08:04:47;;;;;;;0.55;0.50;;;;;;;28.09;50.15;100848.97;4994492;28;20038;-64
2023/07/11 08:07:13;;;;;;;1.30;0.40;;;;;;;28.03;49.75;100842.53;4983311;28;20035;-65
2023/07/11 08:09:38;;;;;;;0.85;0.57;;;;;;;27.81;51.33;100844.78;4989004;28;20104;-66
2023/07/11 08:12:08;;;;;;;2.20;0.47;;;;;;;27.93;51.68;100827.19;4986597;28;20495;-67
2023/07/11 08:14:38;;;;;;;0.50;0.50;;;;;;;27.81;50.21;100844.03;4998618;28;20036;-65
2023/07/11 08:17:05;;;;;;;0.98;0.47;;;;;;;27.88;51.34;100841.66;4991394;28;20422;-64
2023/07/11 08:19:31;;;;;;;1.08;0.40;;;;;;;27.80;49.88;100837.69;4986433;28;20038;-66
2023/07/11 08:21:56;;;;;;;2.33;0.40;;;;;;;28.15;49.90;100835.25;4991080;28;20660;-65
2023/07/11 08:24:22;;;;;;;1.50;0.60;;;;;;;27.84;50.31;100832.00;5005056;28;20470;-64
2023/07/11 08:26:48;;;;;;;2.05;0.60;;;;;;;28.00;50.00;100832.41;4994243;28;20304;-65
2023/07/11 08:29:13;;;;;;;1.48;0.30;;;;;;;28.14;51.64;100828.19;4989996;28;20023;-66
2023/07/11 08:31:39;;;;;;;0.70;0.70;;;;;;;28.12;49.90;100830.66;4999421;28;20095;-66
2023/07/11 08:34:04;;;;;;;1.65;0.40;;;;;;;28.39;49.57;100822.16;4990758;28;20084;-65
2023/07/11 08:36:30;;;;;;;1.45;0.60;;;;;;;28.55;49.57;100812.69;4986410;28;20038;-66
2023/07/11 08:38:55;;;;;;;1.75;0.65;;;;;;;28.79;48.68;100821.69;4981656;28;20030;-65
2023/07/11 08:41:42;;;;;;;1.13;0.60;;;;;;;28.39;50.24;100811.84;4998625;28;20068;-65
2023/07/11 08:44:16;;;;;;;0.52;0.40;;;;;;;28.79;49.19;100805.06;4994577;28;20372;-65
2023/07/11 08:46:58;;;;;;;1.00;0.50;;;;;;;28.92;48.22;100811.88;4985787;28;20113;-66
2023/07/11 08:49:36;;;;;;;1.90;0.77;;;;;;;29.33;48.73;100810.09;4983114;28;20028;-66
2023/07/11 08:52:04;;;;;;;0.40;0.30;;;;;;;29.22;47.49;100812.69;4995072;28;20032;-67
2023/07/11 08:54:33;;;;;;;0.80;0.47;;;;;;;29.51;47.95;100812.66;4988206;23;20403;-69
2023/07/11 08:56:59;;;;;;;1.08;0.73;;;;;;;29.44;47.37;100809.50;4977461;28;20169;-69
2023/07/11 08:59:48;;;;;;;1.25;0.40;;;;;;;29.25;47.63;100792.28;4967698;28;20478;-70
2023/07/11 09:02:27;;;;;;;0.95;0.70;;;;;;;29.39;47.18;100791.50;4976234;28;20034;-69
2023/07/11 09:04:53;;;;;;;0.70;0.55;;;;;;;29.50;47.08;100791.66;4980733;28;20059;-68
2023/07/11 09:07:38;;;;;;;3.08;0.77;;;;;;;29.43;46.81;100792.09;4976534;28;20058;-68
2023/07/11 09:10:27;;;;;;;3.03;0.70;;;;;;;29.60;48.41;100790.31;4977612;28;20057;-68
2023/07/11 09:13:08;;;;;;;1.70;0.70;;;;;;;29.38;45.92;100790.00;4960648;28;20054;-69
2023/07/11 09:15:52;;;;;;;;;;;;;;;29.45;45.94;100786.81;4958589;28;20042;-67
2023/07/11 09:18:17;;;;;;;0.75;0.47;;;;;;;28.98;45.38;100790.53;4973126;28;19925;-69
2023/07/11 09:20:56;;;;;;;0.40;0.38;;;;;;;29.14;44.89;100786.56;4971341;28;20039;-69
2023/07/11 09:23:40;;;;;;;1.10;0.50;;;;;;;29.44;45.56;100790.06;4971135;28;20035;-68
2023/07/11 09:26:12;;;;;;;0.90;0.60;;;;;;;29.07;45.57;100776.59;4952047;28;20146;-69
2023/07/11 09:28:39;;;;;;;1.05;0.63;;;;;;;29.63;47.07;100778.25;4964976;28;20399;-69
2023/07/11 09:31:13;;;;;;;0.93;0.43;;;;;;;30.13;44.75;100776.94;4968921;28;20047;-67
2023/07/11 09:33:47;;;;;;;0.40;0.40;;;;;;;30.57;44.83;100779.50;4969230;28;20035;-69
2023/07/11 09:36:27;;;;;;;3.13;0.82;;;;;;;30.70;44.04;100774.31;4965887;28;20047;-68
2023/07/11 09:39:46;;;;;;;0.75;0.57;;;;;;;30.66;43.38;100762.66;4968812;28;20027;-69
2023/07/11 09:42:17;;;;;;;2.78;0.57;;;;;;;30.58;43.82;100756.00;4960286;28;20214;-69
2023/07/11 09:44:57;;;;;;;1.15;0.50;;;;;;;30.65;43.16;100766.69;4966377;28;20038;-69
2023/07/11 09:47:23;;;;;;;0.55;0.45;;;;;;;30.40;43.92;100753.53;4963456;28;20082;-67
2023/07/11 09:49:51;;;;;;;0.65;0.40;;;;;;;30.98;43.34;100757.94;4982491;28;20030;-69
2023/07/11 09:52:26;;;;;;;1.73;0.70;;;;;;;30.75;43.26;100759.72;4966893;28;20022;-69
2023/07/11 09:54:52;;;;;;;0.82;0.47;;;;;;;31.08;42.47;100748.16;4967482;28;20495;-67
2023/07/11 09:57:18;;;;;;;1.85;0.52;;;;;;;31.27;42.75;100740.94;4975946;28;20658;-69
2023/07/11 09:59:52;;;;;;;0.70;0.50;;;;;;;31.04;42.31;100753.19;4973330;28;20172;-68
2023/07/11 10:02:17;;;;;;;1.48;0.60;;;;;;;30.89;41.72;100739.41;4959833;28;20031;-68
2023/07/11 10:05:03;;;;;;;4.20;0.70;;;;;;;31.29;41.98;100741.22;4960524;28;20046;-69
2023/07/11 10:07:50;;;;;;;1.70;0.60;;;;;;;31.24;41.03;100735.63;4929743;29;20428;-66
2023/07/11 10:10:16;;;;;;;0.80;0.60;;;;;;;31.65;41.89;100734.16;4890152;29;20453;-69
2023/07/11 10:12:43;;;;;;;1.60;0.57;;;;;;;31.74;40.70;100740.28;4882466;29;20029;-68
2023/07/11 10:15:16;;;;;;;2.33;0.57;;;;;;;31.67;40.86;100734.38;4887992;29;20080;-67
2023/07/11 10:17:44;;;;;;;3.35;0.68;;;;;;;31.69;40.84;100718.69;4899414;29;20040;-66
2023/07/11 10:20:16;;;;;;;0.75;0.40;;;;;;;32.10;39.27;100718.38;4872700;29;20042;-69
2023/07/11 10:22:44;;;;;;;0.60;0.50;;;;;;;32.05;39.20;100708.75;4857957;29;20029;-69
2023/07/11 10:25:21;;;;;;;2.10;0.60;;;;;;;32.18;39.43;100711.84;4891259;29;20100;-69
2023/07/11 10:27:59;;;;;;;0.57;0.40;;;;;;;32.43;41.46;100701.75;4890469;29;20056;-69
2023/07/11 10:30:28;;;;;;;3.58;0.50;;;;;;;32.59;40.73;100703.84;4892151;29;20044;-69
2023/07/11 10:33:00;;;;;;;1.30;0.63;;;;;;;32.62;38.73;100700.78;4873362;29;20033;-68
2023/07/11 10:35:26;;;;;;;1.13;0.47;;;;;;;31.95;38.54;100687.94;4887769;29;20064;-69
2023/07/11 10:37:56;;;;;;;0.52;0.32;;;;;;;32.30;39.02;100698.69;4891580;29;20048;-68
2023/07/11 10:40:28;;;;;;;0.32;0.32;;;;;;;32.36;37.87;100696.66;4900569;29;20063;-69
2023/07/11 10:43:15;;;;;;;1.52;0.40;;;;;;;32.61;38.08;100695.72;4894541;29;20036;-69
2023/07/11 10:45:45;;;;;;;0.55;0.50;;;;;;;32.47;38.20;100691.91;4924099;29;20119;-69
2023/07/11 10:48:23;;;;;;;0.98;0.50;;;;;;;32.88;38.99;100686.59;4960775;28;20057;-69
2023/07/11 10:50:55;;;;;;;0.82;0.50;;;;;;;33.18;39.97;100687.59;4958311;28;20053;-69
2023/07/11 10:53:55;;;;;;;2.17;0.60;;;;;;;33.17;37.68;100680.50;4963795;28;20143;-69
2023/07/11 10:56:25;;;;;;;0.30;0.28;;;;;;;33.41;36.53;100683.47;4971446;28;20532;-68
2023/07/11 10:58:53;;;;;;;1.90;0.63;;;;;;;33.17;36.49;100672.13;4960716;28;20399;-68
2023/07/11 11:01:38;;;;;;;0.85;0.35;;;;;;;33.19;36.68;100669.56;4989661;28;20077;-66
2023/07/11 11:04:42;;;;;;;1.33;0.50;;;;;;;33.25;36.96;100667.53;4964425;28;20085;-69
2023/07/11 11:07:22;;;;;;;2.15;0.47;;;;;;;33.01;37.81;100656.16;4962038;28;20050;-69
2023/07/11 11:10:06;;;;;;;0.80;0.50;;;;;;;32.77;36.65;100650.31;4970435;28;20077;-68
2023/07/11 11:12:42;;;;;;;1.17;0.57;;;;;;;32.48;38.50;100640.41;4977053;28;21872;-69
2023/07/11 11:15:10;;;;;;;0.75;0.60;;;;;;;33.05;37.01;100639.13;4971782;28;20117;-68
2023/07/11 11:17:58;;;;;;;0.55;0.55;;;;;;;33.47;37.65;100645.13;4971641;28;20030;-67
2023/07/11 11:20:36;;;;;;;0.60;0.50;;;;;;;33.32;36.84;100641.84;4973580;28;20829;-69
2023/07/11 11:23:56;;;;;;;1.25;0.55;;;;;;;33.25;36.77;100638.84;4972860;28;20030;-69
2023/07/11 11:26:35;;;;;;;0.95;0.60;;;;;;;33.01;37.77;100633.81;4895619;29;20575;-69
2023/07/11 11:29:21;;;;;;;1.15;0.50;;;;;;;32.72;39.30;100623.91;4962005;28;20057;-67
2023/07/11 11:32:13;;;;;;;1.08;0.80;;;;;;;33.19;38.58;100635.28;4977216;28;20038;-69
2023/07/11 11:35:03;;;;;;;1.02;0.60;;;;;;;33.07;37.72;100634.56;4963217;28;20038;-68